sensor_id;sensor_type;location;lat;lon;timestamp;P1;durP1;ratioP1;P2;durP2;ratioP2
47329;SDS011;33060;50.178;7.570;2022-08-19T00:01:46;22.70;;;20.70;;
47329;SDS011;33060;50.178;7.570;2022-08-19T00:04:20;22.85;;;20.63;;
47329;SDS011;33060;50.178;7.570;2022-08-19T00:06:49;21.88;;;20.08;;
47329;SDS011;33060;50.178;7.570;2022-08-19T00:09:17;21.67;;;19.77;;
47329;SDS011;33060;50.178;7.570;2022-08-19T00:11:47;22.02;;;20.13;;
47329;SDS011;33060;50.178;7.570;2022-08-19T00:14:14;22.00;;;20.13;;
47329;SDS011;33060;50.178;7.570;2022-08-19T00:16:43;21.77;;;19.90;;
47329;SDS011;33060;50.178;7.570;2022-08-19T00:19:11;21.52;;;19.80;;
47329;SDS011;33060;50.178;7.570;2022-08-19T00:21:38;21.90;;;20.10;;
47329;SDS011;33060;50.178;7.570;2022-08-19T00:24:07;20.80;;;18.95;;
47329;SDS011;33060;50.178;7.570;2022-08-19T00:26:36;21.48;;;19.70;;
47329;SDS011;33060;50.178;7.570;2022-08-19T00:29:04;20.13;;;18.35;;
47329;SDS011;33060;50.178;7.570;2022-08-19T00:31:32;20.75;;;18.90;;
47329;SDS011;33060;50.178;7.570;2022-08-19T00:33:59;21.67;;;19.77;;
47329;SDS011;33060;50.178;7.570;2022-08-19T00:36:26;21.92;;;20.10;;
47329;SDS011;33060;50.178;7.570;2022-08-19T00:38:52;21.00;;;19.13;;
47329;SDS011;33060;50.178;7.570;2022-08-19T00:41:20;20.55;;;18.85;;
47329;SDS011;33060;50.178;7.570;2022-08-19T00:44:02;21.60;;;19.70;;
47329;SDS011;33060;50.178;7.570;2022-08-19T00:46:31;21.10;;;19.30;;
47329;SDS011;33060;50.178;7.570;2022-08-19T00:48:59;22.33;;;20.25;;
47329;SDS011;33060;50.178;7.570;2022-08-19T00:51:29;20.85;;;19.00;;
47329;SDS011;33060;50.178;7.570;2022-08-19T00:53:58;20.58;;;18.83;;
47329;SDS011;33060;50.178;7.570;2022-08-19T00:56:27;22.00;;;20.00;;
47329;SDS011;33060;50.178;7.570;2022-08-19T00:59:01;21.17;;;19.35;;
47329;SDS011;33060;50.178;7.570;2022-08-19T01:01:59;20.48;;;18.77;;
47329;SDS011;33060;50.178;7.570;2022-08-19T01:04:26;21.25;;;19.38;;
47329;SDS011;33060;50.178;7.570;2022-08-19T01:06:52;20.75;;;18.75;;
47329;SDS011;33060;50.178;7.570;2022-08-19T01:09:19;20.05;;;18.27;;
47329;SDS011;33060;50.178;7.570;2022-08-19T01:11:46;19.63;;;17.95;;
47329;SDS011;33060;50.178;7.570;2022-08-19T01:14:13;20.63;;;18.83;;
47329;SDS011;33060;50.178;7.570;2022-08-19T01:16:41;21.25;;;19.35;;
47329;SDS011;33060;50.178;7.570;2022-08-19T01:19:10;20.20;;;18.35;;
47329;SDS011;33060;50.178;7.570;2022-08-19T01:21:46;19.77;;;18.02;;
47329;SDS011;33060;50.178;7.570;2022-08-19T01:24:21;19.15;;;17.55;;
47329;SDS011;33060;50.178;7.570;2022-08-19T01:26:48;19.98;;;18.27;;
47329;SDS011;33060;50.178;7.570;2022-08-19T01:29:14;19.25;;;17.45;;
47329;SDS011;33060;50.178;7.570;2022-08-19T01:31:42;19.58;;;17.95;;
47329;SDS011;33060;50.178;7.570;2022-08-19T01:34:08;18.42;;;16.83;;
47329;SDS011;33060;50.178;7.570;2022-08-19T01:36:41;16.65;;;15.25;;
47329;SDS011;33060;50.178;7.570;2022-08-19T01:39:15;16.95;;;15.45;;
47329;SDS011;33060;50.178;7.570;2022-08-19T01:41:46;17.00;;;15.32;;
47329;SDS011;33060;50.178;7.570;2022-08-19T01:44:14;18.65;;;16.70;;
47329;SDS011;33060;50.178;7.570;2022-08-19T01:46:45;18.08;;;16.38;;
47329;SDS011;33060;50.178;7.570;2022-08-19T01:49:14;16.50;;;15.07;;
47329;SDS011;33060;50.178;7.570;2022-08-19T01:51:42;16.15;;;14.45;;
47329;SDS011;33060;50.178;7.570;2022-08-19T01:54:09;15.88;;;14.40;;
47329;SDS011;33060;50.178;7.570;2022-08-19T01:56:38;15.77;;;14.35;;
47329;SDS011;33060;50.178;7.570;2022-08-19T01:59:09;15.70;;;14.20;;
47329;SDS011;33060;50.178;7.570;2022-08-19T02:01:38;18.98;;;17.25;;
47329;SDS011;33060;50.178;7.570;2022-08-19T02:04:06;17.60;;;16.10;;
47329;SDS011;33060;50.178;7.570;2022-08-19T02:06:33;18.38;;;16.63;;
47329;SDS011;33060;50.178;7.570;2022-08-19T02:09:01;16.70;;;15.20;;
47329;SDS011;33060;50.178;7.570;2022-08-19T02:11:31;15.35;;;13.90;;
47329;SDS011;33060;50.178;7.570;2022-08-19T02:14:00;16.00;;;14.32;;
47329;SDS011;33060;50.178;7.570;2022-08-19T02:16:29;15.75;;;14.35;;
47329;SDS011;33060;50.178;7.570;2022-08-19T02:18:56;15.45;;;13.90;;
47329;SDS011;33060;50.178;7.570;2022-08-19T02:21:27;15.45;;;14.05;;
47329;SDS011;33060;50.178;7.570;2022-08-19T02:23:54;16.85;;;15.35;;
47329;SDS011;33060;50.178;7.570;2022-08-19T02:26:21;16.20;;;14.80;;
47329;SDS011;33060;50.178;7.570;2022-08-19T02:28:48;16.38;;;14.98;;
47329;SDS011;33060;50.178;7.570;2022-08-19T02:31:16;16.73;;;15.02;;
47329;SDS011;33060;50.178;7.570;2022-08-19T02:33:45;15.93;;;14.52;;
47329;SDS011;33060;50.178;7.570;2022-08-19T02:36:14;16.88;;;15.43;;
47329;SDS011;33060;50.178;7.570;2022-08-19T02:38:46;17.25;;;15.73;;
47329;SDS011;33060;50.178;7.570;2022-08-19T02:41:21;16.48;;;14.93;;
47329;SDS011;33060;50.178;7.570;2022-08-19T02:43:52;16.20;;;14.60;;
47329;SDS011;33060;50.178;7.570;2022-08-19T02:46:44;15.55;;;14.25;;
47329;SDS011;33060;50.178;7.570;2022-08-19T02:49:12;15.73;;;14.23;;
47329;SDS011;33060;50.178;7.570;2022-08-19T02:51:40;15.43;;;13.95;;
47329;SDS011;33060;50.178;7.570;2022-08-19T02:54:08;14.70;;;13.32;;
47329;SDS011;33060;50.178;7.570;2022-08-19T02:56:36;14.60;;;13.30;;
47329;SDS011;33060;50.178;7.570;2022-08-19T02:59:04;14.63;;;13.32;;
47329;SDS011;33060;50.178;7.570;2022-08-19T03:01:37;17.48;;;15.32;;
47329;SDS011;33060;50.178;7.570;2022-08-19T03:04:06;16.55;;;15.05;;
47329;SDS011;33060;50.178;7.570;2022-08-19T03:06:37;16.15;;;14.75;;
47329;SDS011;33060;50.178;7.570;2022-08-19T03:09:06;17.02;;;15.25;;
47329;SDS011;33060;50.178;7.570;2022-08-19T03:11:33;16.83;;;15.23;;
47329;SDS011;33060;50.178;7.570;2022-08-19T03:14:00;17.52;;;15.77;;
47329;SDS011;33060;50.178;7.570;2022-08-19T03:16:29;17.95;;;16.27;;
47329;SDS011;33060;50.178;7.570;2022-08-19T03:18:59;17.23;;;15.65;;
47329;SDS011;33060;50.178;7.570;2022-08-19T03:21:29;16.85;;;15.35;;
47329;SDS011;33060;50.178;7.570;2022-08-19T03:23:58;16.52;;;15.05;;
47329;SDS011;33060;50.178;7.570;2022-08-19T03:26:26;17.02;;;15.15;;
47329;SDS011;33060;50.178;7.570;2022-08-19T03:28:53;15.95;;;14.55;;
47329;SDS011;33060;50.178;7.570;2022-08-19T03:31:24;18.35;;;16.65;;
47329;SDS011;33060;50.178;7.570;2022-08-19T03:34:13;18.75;;;16.85;;
47329;SDS011;33060;50.178;7.570;2022-08-19T03:36:43;16.60;;;14.90;;
47329;SDS011;33060;50.178;7.570;2022-08-19T03:39:11;15.65;;;14.15;;
47329;SDS011;33060;50.178;7.570;2022-08-19T03:41:39;14.90;;;13.65;;
47329;SDS011;33060;50.178;7.570;2022-08-19T03:44:15;16.05;;;14.65;;
47329;SDS011;33060;50.178;7.570;2022-08-19T03:46:52;15.95;;;13.63;;
47329;SDS011;33060;50.178;7.570;2022-08-19T03:49:22;15.80;;;14.30;;
47329;SDS011;33060;50.178;7.570;2022-08-19T03:51:55;16.38;;;14.77;;
47329;SDS011;33060;50.178;7.570;2022-08-19T03:54:24;16.08;;;14.60;;
47329;SDS011;33060;50.178;7.570;2022-08-19T03:56:53;17.05;;;15.52;;
47329;SDS011;33060;50.178;7.570;2022-08-19T03:59:25;17.73;;;16.10;;
47329;SDS011;33060;50.178;7.570;2022-08-19T04:01:55;18.02;;;16.35;;
47329;SDS011;33060;50.178;7.570;2022-08-19T04:04:23;17.42;;;15.73;;
47329;SDS011;33060;50.178;7.570;2022-08-19T04:06:54;16.77;;;15.13;;
47329;SDS011;33060;50.178;7.570;2022-08-19T04:09:22;17.00;;;15.40;;
47329;SDS011;33060;50.178;7.570;2022-08-19T04:11:50;17.65;;;15.95;;
47329;SDS011;33060;50.178;7.570;2022-08-19T04:14:21;18.13;;;15.85;;
47329;SDS011;33060;50.178;7.570;2022-08-19T04:16:51;16.83;;;15.23;;
47329;SDS011;33060;50.178;7.570;2022-08-19T04:19:18;16.20;;;14.70;;
47329;SDS011;33060;50.178;7.570;2022-08-19T04:21:47;15.70;;;14.30;;
47329;SDS011;33060;50.178;7.570;2022-08-19T04:24:17;16.08;;;14.57;;
47329;SDS011;33060;50.178;7.570;2022-08-19T04:26:45;16.77;;;15.18;;
47329;SDS011;33060;50.178;7.570;2022-08-19T04:29:17;16.60;;;15.00;;
47329;SDS011;33060;50.178;7.570;2022-08-19T04:31:51;17.42;;;15.73;;
47329;SDS011;33060;50.178;7.570;2022-08-19T04:34:20;17.55;;;15.95;;
47329;SDS011;33060;50.178;7.570;2022-08-19T04:36:50;16.55;;;14.90;;
47329;SDS011;33060;50.178;7.570;2022-08-19T04:39:22;16.58;;;14.98;;
47329;SDS011;33060;50.178;7.570;2022-08-19T04:42:11;15.70;;;14.30;;
47329;SDS011;33060;50.178;7.570;2022-08-19T04:44:56;16.92;;;15.43;;
47329;SDS011;33060;50.178;7.570;2022-08-19T04:47:25;17.38;;;15.57;;
47329;SDS011;33060;50.178;7.570;2022-08-19T04:50:12;17.30;;;15.65;;
47329;SDS011;33060;50.178;7.570;2022-08-19T04:52:38;17.00;;;15.43;;
47329;SDS011;33060;50.178;7.570;2022-08-19T04:55:10;17.85;;;16.10;;
47329;SDS011;33060;50.178;7.570;2022-08-19T04:57:37;18.15;;;16.08;;
47329;SDS011;33060;50.178;7.570;2022-08-19T05:00:07;17.63;;;15.68;;
47329;SDS011;33060;50.178;7.570;2022-08-19T05:02:35;17.75;;;16.05;;
47329;SDS011;33060;50.178;7.570;2022-08-19T05:05:02;17.45;;;15.75;;
47329;SDS011;33060;50.178;7.570;2022-08-19T05:07:29;17.10;;;15.60;;
47329;SDS011;33060;50.178;7.570;2022-08-19T05:09:57;16.65;;;15.25;;
47329;SDS011;33060;50.178;7.570;2022-08-19T05:12:24;16.17;;;14.75;;
47329;SDS011;33060;50.178;7.570;2022-08-19T05:14:54;16.73;;;15.15;;
47329;SDS011;33060;50.178;7.570;2022-08-19T05:17:23;15.70;;;14.10;;
47329;SDS011;33060;50.178;7.570;2022-08-19T05:19:54;15.15;;;13.77;;
47329;SDS011;33060;50.178;7.570;2022-08-19T05:22:41;14.90;;;13.60;;
47329;SDS011;33060;50.178;7.570;2022-08-19T05:25:13;14.93;;;13.63;;
47329;SDS011;33060;50.178;7.570;2022-08-19T05:27:44;16.92;;;15.02;;
47329;SDS011;33060;50.178;7.570;2022-08-19T05:30:11;15.68;;;14.27;;
47329;SDS011;33060;50.178;7.570;2022-08-19T05:32:38;15.75;;;14.25;;
47329;SDS011;33060;50.178;7.570;2022-08-19T05:35:05;15.68;;;14.18;;
47329;SDS011;33060;50.178;7.570;2022-08-19T05:37:33;15.82;;;14.32;;
47329;SDS011;33060;50.178;7.570;2022-08-19T05:39:59;16.48;;;14.98;;
47329;SDS011;33060;50.178;7.570;2022-08-19T05:42:26;16.33;;;14.82;;
47329;SDS011;33060;50.178;7.570;2022-08-19T05:44:53;16.35;;;14.88;;
47329;SDS011;33060;50.178;7.570;2022-08-19T05:47:20;15.65;;;14.15;;
47329;SDS011;33060;50.178;7.570;2022-08-19T05:49:47;15.90;;;14.32;;
47329;SDS011;33060;50.178;7.570;2022-08-19T05:52:16;16.45;;;14.88;;
47329;SDS011;33060;50.178;7.570;2022-08-19T05:54:44;15.45;;;14.05;;
47329;SDS011;33060;50.178;7.570;2022-08-19T05:57:17;15.60;;;14.30;;
47329;SDS011;33060;50.178;7.570;2022-08-19T05:59:45;15.52;;;14.02;;
47329;SDS011;33060;50.178;7.570;2022-08-19T06:02:23;15.48;;;13.85;;
47329;SDS011;33060;50.178;7.570;2022-08-19T06:04:49;16.13;;;14.73;;
47329;SDS011;33060;50.178;7.570;2022-08-19T06:07:16;15.90;;;14.38;;
47329;SDS011;33060;50.178;7.570;2022-08-19T06:09:43;15.77;;;14.13;;
47329;SDS011;33060;50.178;7.570;2022-08-19T06:12:26;15.50;;;14.20;;
47329;SDS011;33060;50.178;7.570;2022-08-19T06:14:58;14.55;;;13.20;;
47329;SDS011;33060;50.178;7.570;2022-08-19T06:17:27;18.60;;;16.88;;
47329;SDS011;33060;50.178;7.570;2022-08-19T06:19:57;17.90;;;16.13;;
47329;SDS011;33060;50.178;7.570;2022-08-19T06:22:24;16.85;;;15.27;;
47329;SDS011;33060;50.178;7.570;2022-08-19T06:24:51;16.02;;;14.48;;
47329;SDS011;33060;50.178;7.570;2022-08-19T06:27:20;19.70;;;17.88;;
47329;SDS011;33060;50.178;7.570;2022-08-19T06:29:47;20.73;;;18.83;;
47329;SDS011;33060;50.178;7.570;2022-08-19T06:32:14;21.42;;;19.15;;
47329;SDS011;33060;50.178;7.570;2022-08-19T06:34:42;21.08;;;18.52;;
47329;SDS011;33060;50.178;7.570;2022-08-19T06:37:10;19.25;;;17.42;;
47329;SDS011;33060;50.178;7.570;2022-08-19T06:39:38;19.83;;;17.92;;
47329;SDS011;33060;50.178;7.570;2022-08-19T06:42:07;19.88;;;17.98;;
47329;SDS011;33060;50.178;7.570;2022-08-19T06:44:38;21.98;;;19.77;;
47329;SDS011;33060;50.178;7.570;2022-08-19T06:47:09;20.92;;;18.92;;
47329;SDS011;33060;50.178;7.570;2022-08-19T06:49:40;21.15;;;18.98;;
47329;SDS011;33060;50.178;7.570;2022-08-19T06:52:10;22.92;;;20.63;;
47329;SDS011;33060;50.178;7.570;2022-08-19T06:54:41;23.00;;;20.85;;
47329;SDS011;33060;50.178;7.570;2022-08-19T06:57:22;23.90;;;21.40;;
47329;SDS011;33060;50.178;7.570;2022-08-19T06:59:49;23.02;;;20.95;;
47329;SDS011;33060;50.178;7.570;2022-08-19T07:02:17;23.88;;;21.67;;
47329;SDS011;33060;50.178;7.570;2022-08-19T07:04:49;24.50;;;21.98;;
47329;SDS011;33060;50.178;7.570;2022-08-19T07:07:18;23.80;;;21.40;;
47329;SDS011;33060;50.178;7.570;2022-08-19T07:09:47;24.42;;;21.85;;
47329;SDS011;33060;50.178;7.570;2022-08-19T07:12:29;23.88;;;21.52;;
47329;SDS011;33060;50.178;7.570;2022-08-19T07:15:06;24.38;;;21.98;;
47329;SDS011;33060;50.178;7.570;2022-08-19T07:17:35;23.35;;;21.13;;
47329;SDS011;33060;50.178;7.570;2022-08-19T07:20:05;22.75;;;20.55;;
47329;SDS011;33060;50.178;7.570;2022-08-19T07:22:38;22.58;;;20.58;;
47329;SDS011;33060;50.178;7.570;2022-08-19T07:25:07;22.90;;;20.70;;
47329;SDS011;33060;50.178;7.570;2022-08-19T07:27:34;22.40;;;20.10;;
47329;SDS011;33060;50.178;7.570;2022-08-19T07:30:01;21.77;;;19.80;;
47329;SDS011;33060;50.178;7.570;2022-08-19T07:32:29;23.63;;;21.50;;
47329;SDS011;33060;50.178;7.570;2022-08-19T07:34:57;22.50;;;20.33;;
47329;SDS011;33060;50.178;7.570;2022-08-19T07:37:26;21.13;;;19.23;;
47329;SDS011;33060;50.178;7.570;2022-08-19T07:39:59;22.33;;;20.33;;
47329;SDS011;33060;50.178;7.570;2022-08-19T07:42:26;20.48;;;18.50;;
47329;SDS011;33060;50.178;7.570;2022-08-19T07:44:55;21.00;;;19.00;;
47329;SDS011;33060;50.178;7.570;2022-08-19T07:47:22;21.73;;;19.42;;
47329;SDS011;33060;50.178;7.570;2022-08-19T07:50:10;20.58;;;18.60;;
47329;SDS011;33060;50.178;7.570;2022-08-19T07:52:38;20.95;;;18.90;;
47329;SDS011;33060;50.178;7.570;2022-08-19T07:55:06;21.30;;;19.20;;
47329;SDS011;33060;50.178;7.570;2022-08-19T07:58:02;19.15;;;17.17;;
47329;SDS011;33060;50.178;7.570;2022-08-19T08:00:31;22.33;;;18.45;;
47329;SDS011;33060;50.178;7.570;2022-08-19T08:02:58;23.05;;;19.92;;
47329;SDS011;33060;50.178;7.570;2022-08-19T08:05:25;22.88;;;20.65;;
47329;SDS011;33060;50.178;7.570;2022-08-19T08:08:11;20.52;;;18.63;;
47329;SDS011;33060;50.178;7.570;2022-08-19T08:10:57;20.88;;;18.70;;
47329;SDS011;33060;50.178;7.570;2022-08-19T08:13:25;21.27;;;19.20;;
47329;SDS011;33060;50.178;7.570;2022-08-19T08:15:53;24.67;;;22.48;;
47329;SDS011;33060;50.178;7.570;2022-08-19T08:18:21;25.70;;;23.05;;
47329;SDS011;33060;50.178;7.570;2022-08-19T08:20:53;22.92;;;20.70;;
47329;SDS011;33060;50.178;7.570;2022-08-19T08:23:21;22.35;;;20.25;;
47329;SDS011;33060;50.178;7.570;2022-08-19T08:25:48;22.10;;;19.95;;
47329;SDS011;33060;50.178;7.570;2022-08-19T08:28:16;23.58;;;20.08;;
47329;SDS011;33060;50.178;7.570;2022-08-19T08:30:43;22.10;;;17.30;;
47329;SDS011;33060;50.178;7.570;2022-08-19T08:33:24;19.83;;;17.83;;
47329;SDS011;33060;50.178;7.570;2022-08-19T08:36:07;19.05;;;17.17;;
47329;SDS011;33060;50.178;7.570;2022-08-19T08:38:34;21.90;;;18.17;;
47329;SDS011;33060;50.178;7.570;2022-08-19T08:45:10;19.67;;;17.88;;
47329;SDS011;33060;50.178;7.570;2022-08-19T08:47:25;18.25;;;16.45;;
47329;SDS011;33060;50.178;7.570;2022-08-19T08:49:59;21.13;;;19.23;;
47329;SDS011;33060;50.178;7.570;2022-08-19T08:52:46;19.05;;;17.17;;
47329;SDS011;33060;50.178;7.570;2022-08-19T08:55:16;15.27;;;13.70;;
47329;SDS011;33060;50.178;7.570;2022-08-19T08:57:53;15.77;;;13.80;;
47329;SDS011;33060;50.178;7.570;2022-08-19T09:00:35;18.20;;;13.68;;
47329;SDS011;33060;50.178;7.570;2022-08-19T09:03:06;16.08;;;14.57;;
47329;SDS011;33060;50.178;7.570;2022-08-19T09:17:15;11.73;;;10.50;;
47329;SDS011;33060;50.178;7.570;2022-08-19T09:19:53;11.38;;;10.20;;
47329;SDS011;33060;50.178;7.570;2022-08-19T09:22:23;12.02;;;10.65;;
47329;SDS011;33060;50.178;7.570;2022-08-19T09:24:53;10.95;;;9.90;;
47329;SDS011;33060;50.178;7.570;2022-08-19T09:27:21;12.13;;;10.93;;
47329;SDS011;33060;50.178;7.570;2022-08-19T09:30:10;11.63;;;9.80;;
47329;SDS011;33060;50.178;7.570;2022-08-19T09:32:41;10.30;;;9.27;;
47329;SDS011;33060;50.178;7.570;2022-08-19T09:35:09;9.73;;;8.82;;
47329;SDS011;33060;50.178;7.570;2022-08-19T09:37:37;9.55;;;8.75;;
47329;SDS011;33060;50.178;7.570;2022-08-19T09:40:05;9.68;;;8.50;;
47329;SDS011;33060;50.178;7.570;2022-08-19T09:42:34;8.82;;;8.02;;
47329;SDS011;33060;50.178;7.570;2022-08-19T09:45:01;11.15;;;10.05;;
47329;SDS011;33060;50.178;7.570;2022-08-19T09:47:35;9.38;;;8.45;;
47329;SDS011;33060;50.178;7.570;2022-08-19T09:50:06;10.05;;;9.15;;
47329;SDS011;33060;50.178;7.570;2022-08-19T09:52:35;11.55;;;10.35;;
47329;SDS011;33060;50.178;7.570;2022-08-19T09:55:04;10.55;;;9.55;;
47329;SDS011;33060;50.178;7.570;2022-08-19T09:57:33;10.35;;;9.50;;
47329;SDS011;33060;50.178;7.570;2022-08-19T10:00:03;9.60;;;8.70;;
47329;SDS011;33060;50.178;7.570;2022-08-19T10:02:32;10.15;;;8.90;;
47329;SDS011;33060;50.178;7.570;2022-08-19T10:04:59;9.82;;;8.90;;
47329;SDS011;33060;50.178;7.570;2022-08-19T10:07:52;11.57;;;10.43;;
47329;SDS011;33060;50.178;7.570;2022-08-19T10:10:22;9.85;;;8.85;;
47329;SDS011;33060;50.178;7.570;2022-08-19T10:12:49;9.30;;;8.38;;
47329;SDS011;33060;50.178;7.570;2022-08-19T10:15:16;9.95;;;9.02;;
47329;SDS011;33060;50.178;7.570;2022-08-19T10:17:54;8.75;;;8.05;;
47329;SDS011;33060;50.178;7.570;2022-08-19T10:20:24;9.98;;;8.80;;
47329;SDS011;33060;50.178;7.570;2022-08-19T10:22:51;9.60;;;8.60;;
47329;SDS011;33060;50.178;7.570;2022-08-19T10:25:18;9.27;;;8.27;;
47329;SDS011;33060;50.178;7.570;2022-08-19T10:27:45;7.25;;;6.65;;
47329;SDS011;33060;50.178;7.570;2022-08-19T10:30:16;9.85;;;8.90;;
47329;SDS011;33060;50.178;7.570;2022-08-19T10:32:45;8.50;;;7.05;;
47329;SDS011;33060;50.178;7.570;2022-08-19T10:35:12;7.90;;;7.25;;
47329;SDS011;33060;50.178;7.570;2022-08-19T10:37:47;7.75;;;7.05;;
47329;SDS011;33060;50.178;7.570;2022-08-19T10:40:27;8.43;;;7.80;;
47329;SDS011;33060;50.178;7.570;2022-08-19T10:42:54;8.98;;;7.40;;
47329;SDS011;33060;50.178;7.570;2022-08-19T10:45:22;8.27;;;7.45;;
47329;SDS011;33060;50.178;7.570;2022-08-19T10:47:53;10.43;;;9.15;;
47329;SDS011;33060;50.178;7.570;2022-08-19T10:50:21;7.97;;;7.20;;
47329;SDS011;33060;50.178;7.570;2022-08-19T10:53:07;8.25;;;7.25;;
47329;SDS011;33060;50.178;7.570;2022-08-19T10:55:35;8.30;;;7.57;;
47329;SDS011;33060;50.178;7.570;2022-08-19T10:58:21;9.38;;;8.48;;
47329;SDS011;33060;50.178;7.570;2022-08-19T11:00:53;9.82;;;7.68;;
47329;SDS011;33060;50.178;7.570;2022-08-19T11:03:22;11.38;;;9.57;;
47329;SDS011;33060;50.178;7.570;2022-08-19T11:05:57;9.15;;;8.35;;
47329;SDS011;33060;50.178;7.570;2022-08-19T11:08:30;8.70;;;7.78;;
47329;SDS011;33060;50.178;7.570;2022-08-19T11:10:58;10.00;;;9.00;;
47329;SDS011;33060;50.178;7.570;2022-08-19T11:13:28;9.18;;;8.15;;
47329;SDS011;33060;50.178;7.570;2022-08-19T11:15:56;9.38;;;8.40;;
47329;SDS011;33060;50.178;7.570;2022-08-19T11:18:33;9.77;;;8.45;;
47329;SDS011;33060;50.178;7.570;2022-08-19T11:24:11;8.90;;;8.00;;
47329;SDS011;33060;50.178;7.570;2022-08-19T11:26:41;8.98;;;8.10;;
47329;SDS011;33060;50.178;7.570;2022-08-19T11:29:10;10.38;;;9.13;;
47329;SDS011;33060;50.178;7.570;2022-08-19T11:31:40;8.20;;;7.45;;
47329;SDS011;33060;50.178;7.570;2022-08-19T11:34:11;12.52;;;9.55;;
47329;SDS011;33060;50.178;7.570;2022-08-19T11:36:40;11.43;;;10.43;;
47329;SDS011;33060;50.178;7.570;2022-08-19T11:39:10;13.45;;;11.30;;
47329;SDS011;33060;50.178;7.570;2022-08-19T11:41:38;12.43;;;8.73;;
47329;SDS011;33060;50.178;7.570;2022-08-19T11:44:05;9.52;;;8.48;;
47329;SDS011;33060;50.178;7.570;2022-08-19T11:46:34;11.05;;;9.32;;
47329;SDS011;33060;50.178;7.570;2022-08-19T11:49:03;9.70;;;8.77;;
47329;SDS011;33060;50.178;7.570;2022-08-19T11:51:33;11.38;;;7.82;;
47329;SDS011;33060;50.178;7.570;2022-08-19T11:54:00;9.13;;;8.25;;
47329;SDS011;33060;50.178;7.570;2022-08-19T11:56:27;10.07;;;9.18;;
47329;SDS011;33060;50.178;7.570;2022-08-19T11:58:54;8.20;;;7.35;;
47329;SDS011;33060;50.178;7.570;2022-08-19T12:01:25;8.88;;;7.97;;
47329;SDS011;33060;50.178;7.570;2022-08-19T12:03:54;11.82;;;10.25;;
47329;SDS011;33060;50.178;7.570;2022-08-19T12:06:22;10.52;;;9.43;;
47329;SDS011;33060;50.178;7.570;2022-08-19T12:08:58;12.50;;;11.30;;
47329;SDS011;33060;50.178;7.570;2022-08-19T12:11:27;11.13;;;10.02;;
47329;SDS011;33060;50.178;7.570;2022-08-19T12:13:56;10.98;;;9.98;;
47329;SDS011;33060;50.178;7.570;2022-08-19T12:16:24;11.23;;;10.10;;
47329;SDS011;33060;50.178;7.570;2022-08-19T12:18:54;10.30;;;9.20;;
47329;SDS011;33060;50.178;7.570;2022-08-19T12:21:22;10.23;;;8.32;;
47329;SDS011;33060;50.178;7.570;2022-08-19T12:23:55;10.40;;;9.40;;
47329;SDS011;33060;50.178;7.570;2022-08-19T12:26:29;9.52;;;8.73;;
47329;SDS011;33060;50.178;7.570;2022-08-19T12:29:01;12.20;;;11.10;;
47329;SDS011;33060;50.178;7.570;2022-08-19T12:31:29;11.48;;;10.38;;
47329;SDS011;33060;50.178;7.570;2022-08-19T12:33:57;10.88;;;9.88;;
47329;SDS011;33060;50.178;7.570;2022-08-19T12:36:25;10.77;;;9.68;;
47329;SDS011;33060;50.178;7.570;2022-08-19T12:38:52;11.68;;;10.57;;
47329;SDS011;33060;50.178;7.570;2022-08-19T12:41:20;11.20;;;10.15;;
47329;SDS011;33060;50.178;7.570;2022-08-19T12:43:50;11.32;;;10.40;;
47329;SDS011;33060;50.178;7.570;2022-08-19T12:46:17;10.48;;;9.40;;
47329;SDS011;33060;50.178;7.570;2022-08-19T12:48:47;9.98;;;9.07;;
47329;SDS011;33060;50.178;7.570;2022-08-19T12:51:20;8.98;;;8.07;;
47329;SDS011;33060;50.178;7.570;2022-08-19T12:53:47;9.20;;;8.40;;
47329;SDS011;33060;50.178;7.570;2022-08-19T12:56:16;9.45;;;8.65;;
47329;SDS011;33060;50.178;7.570;2022-08-19T12:58:48;11.32;;;10.27;;
47329;SDS011;33060;50.178;7.570;2022-08-19T13:01:18;10.15;;;8.50;;
47329;SDS011;33060;50.178;7.570;2022-08-19T13:03:48;9.85;;;9.05;;
47329;SDS011;33060;50.178;7.570;2022-08-19T13:06:18;10.77;;;9.55;;
47329;SDS011;33060;50.178;7.570;2022-08-19T13:08:46;9.90;;;8.90;;
47329;SDS011;33060;50.178;7.570;2022-08-19T13:11:15;11.40;;;10.40;;
47329;SDS011;33060;50.178;7.570;2022-08-19T13:13:44;10.85;;;9.80;;
47329;SDS011;33060;50.178;7.570;2022-08-19T13:16:13;10.60;;;9.65;;
47329;SDS011;33060;50.178;7.570;2022-08-19T13:18:41;9.77;;;8.80;;
47329;SDS011;33060;50.178;7.570;2022-08-19T13:21:10;9.88;;;8.88;;
47329;SDS011;33060;50.178;7.570;2022-08-19T13:23:40;9.77;;;8.80;;
47329;SDS011;33060;50.178;7.570;2022-08-19T13:26:08;10.30;;;8.48;;
47329;SDS011;33060;50.178;7.570;2022-08-19T13:28:36;9.95;;;9.05;;
47329;SDS011;33060;50.178;7.570;2022-08-19T13:31:22;9.35;;;8.55;;
47329;SDS011;33060;50.178;7.570;2022-08-19T13:34:09;9.30;;;8.40;;
47329;SDS011;33060;50.178;7.570;2022-08-19T13:36:36;10.32;;;9.32;;
47329;SDS011;33060;50.178;7.570;2022-08-19T13:39:05;9.38;;;7.55;;
47329;SDS011;33060;50.178;7.570;2022-08-19T13:41:33;9.85;;;8.35;;
47329;SDS011;33060;50.178;7.570;2022-08-19T13:44:02;9.35;;;8.45;;
47329;SDS011;33060;50.178;7.570;2022-08-19T13:46:29;9.40;;;8.45;;
47329;SDS011;33060;50.178;7.570;2022-08-19T13:48:57;10.07;;;9.07;;
47329;SDS011;33060;50.178;7.570;2022-08-19T13:51:24;9.05;;;8.18;;
47329;SDS011;33060;50.178;7.570;2022-08-19T13:53:50;12.23;;;8.50;;
47329;SDS011;33060;50.178;7.570;2022-08-19T13:56:18;9.00;;;8.02;;
47329;SDS011;33060;50.178;7.570;2022-08-19T13:58:52;8.25;;;7.45;;
47329;SDS011;33060;50.178;7.570;2022-08-19T14:01:22;8.60;;;7.80;;
47329;SDS011;33060;50.178;7.570;2022-08-19T14:03:50;9.60;;;8.70;;
47329;SDS011;33060;50.178;7.570;2022-08-19T14:06:17;9.60;;;8.60;;
47329;SDS011;33060;50.178;7.570;2022-08-19T14:08:45;9.68;;;8.13;;
47329;SDS011;33060;50.178;7.570;2022-08-19T14:11:12;10.82;;;8.50;;
47329;SDS011;33060;50.178;7.570;2022-08-19T14:13:39;8.32;;;7.53;;
47329;SDS011;33060;50.178;7.570;2022-08-19T14:16:10;8.32;;;7.53;;
47329;SDS011;33060;50.178;7.570;2022-08-19T14:18:39;7.50;;;6.80;;
47329;SDS011;33060;50.178;7.570;2022-08-19T14:21:06;7.55;;;6.82;;
47329;SDS011;33060;50.178;7.570;2022-08-19T14:23:33;8.38;;;7.57;;
47329;SDS011;33060;50.178;7.570;2022-08-19T14:26:04;10.55;;;7.75;;
47329;SDS011;33060;50.178;7.570;2022-08-19T14:28:32;8.75;;;7.25;;
47329;SDS011;33060;50.178;7.570;2022-08-19T14:30:59;8.68;;;7.63;;
47329;SDS011;33060;50.178;7.570;2022-08-19T14:33:26;8.30;;;7.50;;
47329;SDS011;33060;50.178;7.570;2022-08-19T14:35:55;7.60;;;6.95;;
47329;SDS011;33060;50.178;7.570;2022-08-19T14:38:25;8.45;;;7.57;;
47329;SDS011;33060;50.178;7.570;2022-08-19T14:41:10;7.75;;;7.15;;
47329;SDS011;33060;50.178;7.570;2022-08-19T14:43:39;7.78;;;7.10;;
47329;SDS011;33060;50.178;7.570;2022-08-19T14:46:05;8.18;;;7.47;;
47329;SDS011;33060;50.178;7.570;2022-08-19T14:48:35;7.28;;;6.68;;
47329;SDS011;33060;50.178;7.570;2022-08-19T14:51:07;8.13;;;7.32;;
47329;SDS011;33060;50.178;7.570;2022-08-19T14:53:34;8.30;;;7.35;;
47329;SDS011;33060;50.178;7.570;2022-08-19T14:56:01;10.20;;;7.60;;
47329;SDS011;33060;50.178;7.570;2022-08-19T14:58:28;9.77;;;7.75;;
47329;SDS011;33060;50.178;7.570;2022-08-19T15:00:56;7.95;;;7.15;;
47329;SDS011;33060;50.178;7.570;2022-08-19T15:03:27;7.45;;;6.68;;
47329;SDS011;33060;50.178;7.570;2022-08-19T15:05:55;7.93;;;7.22;;